sensor_id;sensor_type;location;lat;lon;timestamp;pressure;altitude;pressure_sealevel;temperature;humidity
18900;BME280;9582;52.018;6.306;2024-02-23T00:01:06;101066.00;;;4.45;100.00
18900;BME280;9582;52.018;6.306;2024-02-23T00:03:34;101076.34;;;4.45;100.00
18900;BME280;9582;52.018;6.306;2024-02-23T00:06:01;101072.03;;;4.44;100.00
18900;BME280;9582;52.018;6.306;2024-02-23T00:08:29;101090.13;;;4.47;100.00
18900;BME280;9582;52.018;6.306;2024-02-23T00:10:56;101090.97;;;4.48;100.00
18900;BME280;9582;52.018;6.306;2024-02-23T00:13:22;101095.34;;;4.46;100.00
18900;BME280;9582;52.018;6.306;2024-02-23T00:15:48;101116.84;;;4.49;100.00
18900;BME280;9582;52.018;6.306;2024-02-23T00:18:14;101122.06;;;4.48;100.00
18900;BME280;9582;52.018;6.306;2024-02-23T00:20:42;101128.09;;;4.48;100.00
18900;BME280;9582;52.018;6.306;2024-02-23T00:23:09;101140.19;;;4.46;100.00
18900;BME280;9582;52.018;6.306;2024-02-23T00:25:37;101141.03;;;4.47;100.00
18900;BME280;9582;52.018;6.306;2024-02-23T00:28:04;101148.81;;;4.48;100.00
18900;BME280;9582;52.018;6.306;2024-02-23T00:30:31;101161.72;;;4.50;100.00
18900;BME280;9582;52.018;6.306;2024-02-23T00:32:57;101153.94;;;4.51;100.00
18900;BME280;9582;52.018;6.306;2024-02-23T00:35:24;101156.50;;;4.53;100.00
18900;BME280;9582;52.018;6.306;2024-02-23T00:37:50;101178.03;;;4.55;100.00
18900;BME280;9582;52.018;6.306;2024-02-23T00:40:17;101171.16;;;4.52;100.00
18900;BME280;9582;52.018;6.306;2024-02-23T00:42:45;101188.38;;;4.55;100.00
18900;BME280;9582;52.018;6.306;2024-02-23T00:45:12;101206.56;;;4.53;100.00
18900;BME280;9582;52.018;6.306;2024-02-23T00:47:38;101220.38;;;4.54;100.00
18900;BME280;9582;52.018;6.306;2024-02-23T00:50:06;101228.13;;;4.54;100.00
18900;BME280;9582;52.018;6.306;2024-02-23T00:52:32;101253.09;;;4.58;100.00
18900;BME280;9582;52.018;6.306;2024-02-23T00:54:59;101261.72;;;4.58;100.00
18900;BME280;9582;52.018;6.306;2024-02-23T00:57:26;101260.84;;;4.59;100.00
18900;BME280;9582;52.018;6.306;2024-02-23T00:59:56;101276.34;;;4.61;100.00
18900;BME280;9582;52.018;6.306;2024-02-23T01:02:23;101279.81;;;4.61;100.00
18900;BME280;9582;52.018;6.306;2024-02-23T01:04:50;101287.53;;;4.63;100.00
18900;BME280;9582;52.018;6.306;2024-02-23T01:07:22;101300.50;;;4.64;100.00
18900;BME280;9582;52.018;6.306;2024-02-23T01:09:48;101300.50;;;4.64;100.00
18900;BME280;9582;52.018;6.306;2024-02-23T01:12:15;101330.72;;;4.65;100.00
18900;BME280;9582;52.018;6.306;2024-02-23T01:14:42;101335.91;;;4.64;100.00
18900;BME280;9582;52.018;6.306;2024-02-23T01:17:10;101342.06;;;4.54;100.00
18900;BME280;9582;52.018;6.306;2024-02-23T01:19:36;101359.47;;;4.41;100.00
18900;BME280;9582;52.018;6.306;2024-02-23T01:22:03;101378.56;;;4.31;100.00
18900;BME280;9582;52.018;6.306;2024-02-23T01:24:29;101400.19;;;4.29;100.00
18900;BME280;9582;52.018;6.306;2024-02-23T01:26:56;101420.88;;;4.29;100.00
18900;BME280;9582;52.018;6.306;2024-02-23T01:29:26;101424.31;;;4.29;100.00
18900;BME280;9582;52.018;6.306;2024-02-23T01:31:52;101435.50;;;4.34;100.00
18900;BME280;9582;52.018;6.306;2024-02-23T01:34:21;101461.31;;;4.40;100.00
18900;BME280;9582;52.018;6.306;2024-02-23T01:36:48;101462.13;;;4.47;100.00
18900;BME280;9582;52.018;6.306;2024-02-23T01:39:14;101461.16;;;4.55;100.00
18900;BME280;9582;52.018;6.306;2024-02-23T01:41:41;101466.28;;;4.61;100.00
18900;BME280;9582;52.018;6.306;2024-02-23T01:44:09;101466.22;;;4.68;100.00
18900;BME280;9582;52.018;6.306;2024-02-23T01:46:36;101459.25;;;4.76;100.00
18900;BME280;9582;52.018;6.306;2024-02-23T01:49:03;101460.03;;;4.81;100.00
18900;BME280;9582;52.018;6.306;2024-02-23T01:51:31;101463.47;;;4.84;100.00
18900;BME280;9582;52.018;6.306;2024-02-23T01:53:58;101461.69;;;4.88;100.00
18900;BME280;9582;52.018;6.306;2024-02-23T01:56:26;101458.22;;;4.89;100.00
18900;BME280;9582;52.018;6.306;2024-02-23T01:58:53;101484.09;;;4.92;100.00
18900;BME280;9582;52.018;6.306;2024-02-23T02:01:21;101491.88;;;4.92;100.00
18900;BME280;9582;52.018;6.306;2024-02-23T02:03:48;101491.00;;;4.91;100.00
18900;BME280;9582;52.018;6.306;2024-02-23T02:06:15;101498.78;;;4.91;100.00
18900;BME280;9582;52.018;6.306;2024-02-23T02:08:43;101501.44;;;4.87;100.00
18900;BME280;9582;52.018;6.306;2024-02-23T02:11:10;101518.72;;;4.85;100.00
18900;BME280;9582;52.018;6.306;2024-02-23T02:13:36;101525.63;;;4.83;100.00
18900;BME280;9582;52.018;6.306;2024-02-23T02:16:03;101560.22;;;4.80;100.00
18900;BME280;9582;52.018;6.306;2024-02-23T02:18:30;101568.84;;;4.81;100.00
18900;BME280;9582;52.018;6.306;2024-02-23T02:20:57;101568.88;;;4.79;100.00
18900;BME280;9582;52.018;6.306;2024-02-23T02:23:24;101593.06;;;4.80;100.00
18900;BME280;9582;52.018;6.306;2024-02-23T02:25:56;101597.41;;;4.76;100.00
18900;BME280;9582;52.018;6.306;2024-02-23T02:28:24;101609.53;;;4.70;100.00
18900;BME280;9582;52.018;6.306;2024-02-23T02:30:51;101622.47;;;4.73;100.00
18900;BME280;9582;52.018;6.306;2024-02-23T02:33:18;101630.28;;;4.70;100.00
18900;BME280;9582;52.018;6.306;2024-02-23T02:35:45;101628.56;;;4.67;100.00
18900;BME280;9582;52.018;6.306;2024-02-23T02:38:11;101652.75;;;4.68;100.00
18900;BME280;9582;52.018;6.306;2024-02-23T02:40:38;101681.25;;;4.68;100.00
18900;BME280;9582;52.018;6.306;2024-02-23T02:43:06;101695.03;;;4.71;100.00
18900;BME280;9582;52.018;6.306;2024-02-23T02:45:33;101714.88;;;4.74;100.00
18900;BME280;9582;52.018;6.306;2024-02-23T02:48:00;101714.84;;;4.77;100.00
18900;BME280;9582;52.018;6.306;2024-02-23T02:50:27;101742.47;;;4.78;100.00
18900;BME280;9582;52.018;6.306;2024-02-23T02:52:54;101739.03;;;4.76;100.00
18900;BME280;9582;52.018;6.306;2024-02-23T02:55:20;101764.06;;;4.75;100.00
18900;BME280;9582;52.018;6.306;2024-02-23T02:57:47;101756.31;;;4.77;100.00
18900;BME280;9582;52.018;6.306;2024-02-23T03:00:15;101789.09;;;4.81;100.00
18900;BME280;9582;52.018;6.306;2024-02-23T03:02:42;101807.22;;;4.84;100.00
18900;BME280;9582;52.018;6.306;2024-02-23T03:05:09;101811.53;;;4.88;100.00
18900;BME280;9582;52.018;6.306;2024-02-23T03:07:35;101824.44;;;4.92;100.00
18900;BME280;9582;52.018;6.306;2024-02-23T03:10:02;101833.94;;;4.96;100.00
18900;BME280;9582;52.018;6.306;2024-02-23T03:12:29;101839.09;;;4.99;100.00
18900;BME280;9582;52.018;6.306;2024-02-23T03:14:55;101853.78;;;5.02;100.00
18900;BME280;9582;52.018;6.306;2024-02-23T03:17:24;101869.31;;;5.03;100.00
18900;BME280;9582;52.018;6.306;2024-02-23T03:19:50;101871.03;;;5.03;100.00
18900;BME280;9582;52.018;6.306;2024-02-23T03:22:17;101884.88;;;5.00;100.00
18900;BME280;9582;52.018;6.306;2024-02-23T03:24:43;101891.78;;;4.97;100.00
18900;BME280;9582;52.018;6.306;2024-02-23T03:27:10;101903.03;;;4.91;100.00
18900;BME280;9582;52.018;6.306;2024-02-23T03:29:38;101904.81;;;4.85;100.00
18900;BME280;9582;52.018;6.306;2024-02-23T03:32:05;101915.22;;;4.79;100.00
18900;BME280;9582;52.018;6.306;2024-02-23T03:34:35;101923.00;;;4.74;100.00
18900;BME280;9582;52.018;6.306;2024-02-23T03:37:02;101922.16;;;4.71;100.00
18900;BME280;9582;52.018;6.306;2024-02-23T03:39:29;101927.34;;;4.68;100.00
18900;BME280;9582;52.018;6.306;2024-02-23T03:41:55;101914.41;;;4.64;100.00
18900;BME280;9582;52.018;6.306;2024-02-23T03:44:22;101929.09;;;4.59;100.00
18900;BME280;9582;52.018;6.306;2024-02-23T03:46:48;101938.59;;;4.56;100.00
18900;BME280;9582;52.018;6.306;2024-02-23T03:49:15;101936.00;;;4.56;100.00
18900;BME280;9582;52.018;6.306;2024-02-23T03:51:43;101927.38;;;4.54;100.00
18900;BME280;9582;52.018;6.306;2024-02-23T03:54:10;101938.56;;;4.54;100.00
18900;BME280;9582;52.018;6.306;2024-02-23T03:56:39;101924.78;;;4.51;100.00
18900;BME280;9582;52.018;6.306;2024-02-23T03:59:07;101956.72;;;4.54;100.00
18900;BME280;9582;52.018;6.306;2024-02-23T04:01:35;101942.06;;;4.53;100.00
18900;BME280;9582;52.018;6.306;2024-02-23T04:04:03;101960.19;;;4.53;100.00
18900;BME280;9582;52.018;6.306;2024-02-23T04:06:30;101968.81;;;4.55;100.00
18900;BME280;9582;52.018;6.306;2024-02-23T04:08:58;101970.53;;;4.59;100.00
18900;BME280;9582;52.018;6.306;2024-02-23T04:11:25;101987.78;;;4.63;100.00
18900;BME280;9582;52.018;6.306;2024-02-23T04:13:51;101986.91;;;4.63;100.00
18900;BME280;9582;52.018;6.306;2024-02-23T04:16:21;101961.88;;;4.63;100.00
18900;BME280;9582;52.018;6.306;2024-02-23T04:18:48;101995.56;;;4.62;100.00
18900;BME280;9582;52.018;6.306;2024-02-23T04:21:15;101954.09;;;4.60;100.00
18900;BME280;9582;52.018;6.306;2024-02-23T04:23:43;101964.47;;;4.60;100.00
18900;BME280;9582;52.018;6.306;2024-02-23T04:26:11;101961.88;;;4.60;100.00
18900;BME280;9582;52.018;6.306;2024-02-23T04:28:39;101979.16;;;4.61;100.00
18900;BME280;9582;52.018;6.306;2024-02-23T04:31:06;101966.22;;;4.60;100.00
18900;BME280;9582;52.018;6.306;2024-02-23T04:33:33;101948.09;;;4.60;100.00
18900;BME280;9582;52.018;6.306;2024-02-23T04:36:00;101970.53;;;4.58;100.00
18900;BME280;9582;52.018;6.306;2024-02-23T04:38:28;101959.31;;;4.56;100.00
18900;BME280;9582;52.018;6.306;2024-02-23T04:40:55;101948.09;;;4.52;100.00
18900;BME280;9582;52.018;6.306;2024-02-23T04:43:23;101956.72;;;4.53;100.00
18900;BME280;9582;52.018;6.306;2024-02-23T04:45:50;101985.22;;;4.53;100.00
18900;BME280;9582;52.018;6.306;2024-02-23T04:48:17;101968.81;;;4.52;100.00
18900;BME280;9582;52.018;6.306;2024-02-23T04:50:43;101962.78;;;4.50;100.00
18900;BME280;9582;52.018;6.306;2024-02-23T04:53:10;101974.84;;;4.53;100.00
18900;BME280;9582;52.018;6.306;2024-02-23T04:55:37;101993.00;;;4.51;100.00
18900;BME280;9582;52.018;6.306;2024-02-23T04:58:04;101989.53;;;4.52;100.00
18900;BME280;9582;52.018;6.306;2024-02-23T05:00:32;101983.47;;;4.52;100.00
18900;BME280;9582;52.018;6.306;2024-02-23T05:02:59;101978.31;;;4.53;100.00
18900;BME280;9582;52.018;6.306;2024-02-23T05:05:28;101980.06;;;4.51;100.00
18900;BME280;9582;52.018;6.306;2024-02-23T05:07:54;101975.72;;;4.49;100.00
18900;BME280;9582;52.018;6.306;2024-02-23T05:10:21;101980.03;;;4.50;100.00
18900;BME280;9582;52.018;6.306;2024-02-23T05:12:48;101984.34;;;4.49;100.00
18900;BME280;9582;52.018;6.306;2024-02-23T05:15:15;101980.91;;;4.47;100.00
18900;BME280;9582;52.018;6.306;2024-02-23T05:17:43;101972.28;;;4.47;100.00
18900;BME280;9582;52.018;6.306;2024-02-23T05:20:11;101966.25;;;4.45;100.00
18900;BME280;9582;52.018;6.306;2024-02-23T05:22:38;101944.66;;;4.44;100.00
18900;BME280;9582;52.018;6.306;2024-02-23T05:25:06;101944.66;;;4.43;100.00
18900;BME280;9582;52.018;6.306;2024-02-23T05:27:33;101927.38;;;4.40;100.00
18900;BME280;9582;52.018;6.306;2024-02-23T05:29:59;101944.66;;;4.41;100.00
18900;BME280;9582;52.018;6.306;2024-02-23T05:32:26;101929.97;;;4.40;100.00
18900;BME280;9582;52.018;6.306;2024-02-23T05:34:54;101936.91;;;4.43;100.00
18900;BME280;9582;52.018;6.306;2024-02-23T05:37:22;101934.31;;;4.41;100.00
18900;BME280;9582;52.018;6.306;2024-02-23T05:39:49;101935.16;;;4.43;100.00
18900;BME280;9582;52.018;6.306;2024-02-23T05:42:16;101928.25;;;4.45;100.00
18900;BME280;9582;52.018;6.306;2024-02-23T05:44:43;101921.31;;;4.49;100.00
18900;BME280;9582;52.018;6.306;2024-02-23T05:47:09;101942.91;;;4.55;100.00
18900;BME280;9582;52.018;6.306;2024-02-23T05:49:36;101960.19;;;4.59;100.00
18900;BME280;9582;52.018;6.306;2024-02-23T05:52:04;101960.16;;;4.65;100.00
18900;BME280;9582;52.018;6.306;2024-02-23T05:54:31;101976.53;;;4.72;100.00
18900;BME280;9582;52.018;6.306;2024-02-23T05:56:58;101980.88;;;4.76;100.00
18900;BME280;9582;52.018;6.306;2024-02-23T05:59:24;101992.94;;;4.82;100.00
18900;BME280;9582;52.018;6.306;2024-02-23T06:01:52;101992.91;;;4.83;100.00
18900;BME280;9582;52.018;6.306;2024-02-23T06:04:22;102005.00;;;4.89;100.00
18900;BME280;9582;52.018;6.306;2024-02-23T06:06:48;102010.19;;;4.92;100.00
18900;BME280;9582;52.018;6.306;2024-02-23T06:09:16;102017.94;;;4.95;100.00
18900;BME280;9582;52.018;6.306;2024-02-23T06:11:44;102035.22;;;4.97;100.00
18900;BME280;9582;52.018;6.306;2024-02-23T06:14:11;102039.53;;;5.01;100.00
18900;BME280;9582;52.018;6.306;2024-02-23T06:16:37;102036.94;;;5.01;100.00
18900;BME280;9582;52.018;6.306;2024-02-23T06:19:05;102045.59;;;5.05;100.00
18900;BME280;9582;52.018;6.306;2024-02-23T06:21:32;102043.00;;;5.05;100.00
18900;BME280;9582;52.018;6.306;2024-02-23T06:23:59;102033.47;;;5.07;100.00
18900;BME280;9582;52.018;6.306;2024-02-23T06:26:26;102026.53;;;5.09;100.00
18900;BME280;9582;52.018;6.306;2024-02-23T06:28:53;102017.03;;;5.09;100.00
18900;BME280;9582;52.018;6.306;2024-02-23T06:31:20;102013.59;;;5.10;100.00
18900;BME280;9582;52.018;6.306;2024-02-23T06:33:46;102009.25;;;5.12;100.00
18900;BME280;9582;52.018;6.306;2024-02-23T06:36:14;102005.81;;;5.13;100.00
18900;BME280;9582;52.018;6.306;2024-02-23T06:38:41;102020.50;;;5.16;100.00
18900;BME280;9582;52.018;6.306;2024-02-23T06:41:07;101997.13;;;5.17;100.00
18900;BME280;9582;52.018;6.306;2024-02-23T06:43:37;102005.75;;;5.19;100.00
18900;BME280;9582;52.018;6.306;2024-02-23T06:46:06;102005.75;;;5.22;100.00
18900;BME280;9582;52.018;6.306;2024-02-23T06:48:33;101997.97;;;5.24;100.00
18900;BME280;9582;52.018;6.306;2024-02-23T06:50:59;101986.72;;;5.28;100.00
18900;BME280;9582;52.018;6.306;2024-02-23T06:53:26;102016.09;;;5.29;100.00
18900;BME280;9582;52.018;6.306;2024-02-23T06:55:53;101997.97;;;5.27;100.00
18900;BME280;9582;52.018;6.306;2024-02-23T06:58:19;101985.00;;;5.25;100.00
18900;BME280;9582;52.018;6.306;2024-02-23T07:00:47;101996.25;;;5.26;100.00
18900;BME280;9582;52.018;6.306;2024-02-23T07:03:14;102019.59;;;5.28;100.00
18900;BME280;9582;52.018;6.306;2024-02-23T07:05:42;102014.34;;;5.31;100.00
18900;BME280;9582;52.018;6.306;2024-02-23T07:08:08;102016.09;;;5.35;100.00
18900;BME280;9582;52.018;6.306;2024-02-23T07:10:35;102024.72;;;5.37;100.00
18900;BME280;9582;52.018;6.306;2024-02-23T07:13:01;102019.53;;;5.38;100.00
18900;BME280;9582;52.018;6.306;2024-02-23T07:15:28;102029.03;;;5.41;100.00
18900;BME280;9582;52.018;6.306;2024-02-23T07:17:56;102034.22;;;5.44;100.00
18900;BME280;9582;52.018;6.306;2024-02-23T07:20:23;102033.31;;;5.46;100.00
18900;BME280;9582;52.018;6.306;2024-02-23T07:22:50;102027.25;;;5.49;100.00
18900;BME280;9582;52.018;6.306;2024-02-23T07:25:17;102029.00;;;5.50;100.00
18900;BME280;9582;52.018;6.306;2024-02-23T07:27:45;102012.56;;;5.52;100.00
18900;BME280;9582;52.018;6.306;2024-02-23T07:30:12;102004.75;;;5.55;100.00
18900;BME280;9582;52.018;6.306;2024-02-23T07:32:39;102002.16;;;5.58;100.00
18900;BME280;9582;52.018;6.306;2024-02-23T07:35:08;101995.19;;;5.63;100.00
18900;BME280;9582;52.018;6.306;2024-02-23T07:37:34;101978.75;;;5.64;100.00
18900;BME280;9582;52.018;6.306;2024-02-23T07:40:01;101978.72;;;5.67;100.00
18900;BME280;9582;52.018;6.306;2024-02-23T07:42:29;101971.81;;;5.69;100.00
18900;BME280;9582;52.018;6.306;2024-02-23T07:44:56;101951.03;;;5.69;100.00
18900;BME280;9582;52.018;6.306;2024-02-23T07:47:23;101967.44;;;5.73;100.00
18900;BME280;9582;52.018;6.306;2024-02-23T07:49:49;101938.91;;;5.74;100.00
18900;BME280;9582;52.018;6.306;2024-02-23T07:52:17;101925.91;;;5.74;100.00
18900;BME280;9582;52.018;6.306;2024-02-23T07:54:44;101936.28;;;5.76;100.00
18900;BME280;9582;52.018;6.306;2024-02-23T07:57:11;101918.97;;;5.76;100.00
18900;BME280;9582;52.018;6.306;2024-02-23T07:59:39;101912.91;;;5.80;100.00
18900;BME280;9582;52.018;6.306;2024-02-23T08:02:05;101899.91;;;5.83;100.00
18900;BME280;9582;52.018;6.306;2024-02-23T08:04:32;101894.72;;;5.87;100.00
18900;BME280;9582;52.018;6.306;2024-02-23T08:06:59;101881.72;;;5.88;100.00
18900;BME280;9582;52.018;6.306;2024-02-23T08:09:27;101868.72;;;5.91;100.00
18900;BME280;9582;52.018;6.306;2024-02-23T08:11:53;101847.06;;;5.94;100.00
18900;BME280;9582;52.018;6.306;2024-02-23T08:14:20;101847.03;;;5.97;100.00
18900;BME280;9582;52.018;6.306;2024-02-23T08:16:47;101845.25;;;6.03;100.00
18900;BME280;9582;52.018;6.306;2024-02-23T08:19:14;101846.03;;;6.08;100.00
18900;BME280;9582;52.018;6.306;2024-02-23T08:21:41;101835.59;;;6.13;100.00
18900;BME280;9582;52.018;6.306;2024-02-23T08:24:09;101837.28;;;6.18;100.00
18900;BME280;9582;52.018;6.306;2024-02-23T08:26:37;101826.84;;;6.21;100.00
18900;BME280;9582;52.018;6.306;2024-02-23T08:29:06;101824.19;;;6.29;100.00
18900;BME280;9582;52.018;6.306;2024-02-23T08:31:34;101837.16;;;6.30;100.00
18900;BME280;9582;52.018;6.306;2024-02-23T08:34:01;101832.78;;;6.34;100.00
18900;BME280;9582;52.018;6.306;2024-02-23T08:36:27;101819.75;;;6.38;100.00
18900;BME280;9582;52.018;6.306;2024-02-23T08:38:54;101795.47;;;6.43;100.00
18900;BME280;9582;52.018;6.306;2024-02-23T08:41:21;101759.91;;;6.45;100.00
18900;BME280;9582;52.018;6.306;2024-02-23T08:43:49;101739.94;;;6.50;100.00
18900;BME280;9582;52.018;6.306;2024-02-23T08:46:16;101702.66;;;6.54;100.00
18900;BME280;9582;52.018;6.306;2024-02-23T08:48:43;101687.06;;;6.54;100.00
18900;BME280;9582;52.018;6.306;2024-02-23T08:51:10;101663.66;;;6.54;100.00
18900;BME280;9582;52.018;6.306;2024-02-23T08:53:37;101630.72;;;6.56;100.00
18900;BME280;9582;52.018;6.306;2024-02-23T08:56:04;101588.28;;;6.55;100.00
18900;BME280;9582;52.018;6.306;2024-02-23T08:58:32;101611.56;;;6.61;100.00
18900;BME280;9582;52.018;6.306;2024-02-23T09:01:00;101592.44;;;6.67;100.00
18900;BME280;9582;52.018;6.306;2024-02-23T09:03:27;101581.97;;;6.70;100.00
18900;BME280;9582;52.018;6.306;2024-02-23T09:05:53;101530.00;;;6.71;100.00
18900;BME280;9582;52.018;6.306;2024-02-23T09:08:20;101525.50;;;6.79;100.00
18900;BME280;9582;52.018;6.306;2024-02-23T09:10:47;101512.41;;;6.85;100.00
18900;BME280;9582;52.018;6.306;2024-02-23T09:13:13;101507.88;;;6.95;100.00
18900;BME280;9582;52.018;6.306;2024-02-23T09:15:40;101482.63;;;7.02;100.00
18900;BME280;9582;52.018;6.306;2024-02-23T09:18:09;101479.91;;;7.08;100.00
18900;BME280;9582;52.018;6.306;2024-02-23T09:20:36;101439.09;;;7.11;100.00
18900;BME280;9582;52.018;6.306;2024-02-23T09:23:03;101420.03;;;7.11;100.00
18900;BME280;9582;52.018;6.306;2024-02-23T09:25:29;101390.53;;;7.12;100.00
18900;BME280;9582;52.018;6.306;2024-02-23T09:27:57;101369.72;;;7.13;100.00
18900;BME280;9582;52.018;6.306;2024-02-23T09:30:23;101377.47;;;7.15;100.00
18900;BME280;9582;52.018;6.306;2024-02-23T09:32:50;101357.56;;;7.14;100.00
18900;BME280;9582;52.018;6.306;2024-02-23T09:35:18;101342.91;;;7.10;100.00
18900;BME280;9582;52.018;6.306;2024-02-23T09:37:45;101248.50;;;7.06;100.00
18900;BME280;9582;52.018;6.306;2024-02-23T09:40:12;101202.63;;;7.04;100.00
18900;BME280;9582;52.018;6.306;2024-02-23T09:42:40;101186.25;;;7.00;100.00
18900;BME280;9582;52.018;6.306;2024-02-23T09:45:08;101190.44;;;7.06;100.00
18900;BME280;9582;52.018;6.306;2024-02-23T09:47:37;101207.69;;;7.10;100.00
18900;BME280;9582;52.018;6.306;2024-02-23T09:50:05;101220.63;;;7.13;100.00
18900;BME280;9582;52.018;6.306;2024-02-23T09:52:33;101233.47;;;7.19;100.00
18900;BME280;9582;52.018;6.306;2024-02-23T09:55:00;101250.69;;;7.23;100.00
18900;BME280;9582;52.018;6.306;2024-02-23T09:57:29;101242.06;;;7.22;100.00
18900;BME280;9582;52.018;6.306;2024-02-23T09:59:55;101226.63;;;7.15;100.00
18900;BME280;9582;52.018;6.306;2024-02-23T10:02:22;101223.09;;;7.17;100.00
18900;BME280;9582;52.018;6.306;2024-02-23T10:04:49;101230.97;;;7.14;100.00
18900;BME280;9582;52.018;6.306;2024-02-23T10:07:17;101214.59;;;7.11;100.00
18900;BME280;9582;52.018;6.306;2024-02-23T10:09:46;101227.69;;;7.06;100.00
18900;BME280;9582;52.018;6.306;2024-02-23T10:12:13;101166.34;;;6.99;100.00
18900;BME280;9582;52.018;6.306;2024-02-23T10:14:41;101185.56;;;6.93;100.00
18900;BME280;9582;52.018;6.306;2024-02-23T10:17:07;101189.16;;;6.88;100.00
18900;BME280;9582;52.018;6.306;2024-02-23T10:19:34;101175.44;;;6.83;100.00
18900;BME280;9582;52.018;6.306;2024-02-23T10:22:01;101193.63;;;6.81;100.00
18900;BME280;9582;52.018;6.306;2024-02-23T10:24:27;101194.44;;;6.83;100.00
18900;BME280;9582;52.018;6.306;2024-02-23T10:26:55;101207.44;;;6.85;100.00
18900;BME280;9582;52.018;6.306;2024-02-23T10:29:23;101224.69;;;6.87;100.00
18900;BME280;9582;52.018;6.306;2024-02-23T10:31:51;101233.31;;;6.89;100.00
18900;BME280;9582;52.018;6.306;2024-02-23T10:34:19;101248.88;;;6.91;100.00
18900;BME280;9582;52.018;6.306;2024-02-23T10:36:46;101252.34;;;6.90;100.00
18900;BME280;9582;52.018;6.306;2024-02-23T10:39:17;101255.78;;;6.92;100.00
18900;BME280;9582;52.018;6.306;2024-02-23T10:41:46;101274.56;;;7.03;100.00
18900;BME280;9582;52.018;6.306;2024-02-23T10:44:16;101282.97;;;7.16;100.00
18900;BME280;9582;52.018;6.306;2024-02-23T10:46:44;101294.03;;;7.24;100.00
18900;BME280;9582;52.018;6.306;2024-02-23T10:49:14;101316.50;;;7.28;100.00
18900;BME280;9582;52.018;6.306;2024-02-23T10:51:41;101326.06;;;7.26;100.00
18900;BME280;9582;52.018;6.306;2024-02-23T10:54:09;101333.97;;;7.21;100.00
18900;BME280;9582;52.018;6.306;2024-02-23T10:56:37;101340.16;;;7.16;100.00
18900;BME280;9582;52.018;6.306;2024-02-23T10:59:04;101343.84;;;7.07;100.00
18900;BME280;9582;52.018;6.306;2024-02-23T11:01:34;101337.09;;;6.98;100.00
18900;BME280;9582;52.018;6.306;2024-02-23T11:04:02;101338.03;;;6.94;100.00
18900;BME280;9582;52.018;6.306;2024-02-23T11:06:29;101337.28;;;6.89;100.00
18900;BME280;9582;52.018;6.306;2024-02-23T11:09:05;101346.88;;;6.86;100.00
18900;BME280;9582;52.018;6.306;2024-02-23T11:11:32;101353.91;;;6.82;100.00
18900;BME280;9582;52.018;6.306;2024-02-23T11:14:02;101360.84;;;6.80;100.00
18900;BME280;9582;52.018;6.306;2024-02-23T11:16:31;101379.03;;;6.82;100.00
18900;BME280;9582;52.018;6.306;2024-02-23T11:19:03;101390.19;;;6.88;100.00
18900;BME280;9582;52.018;6.306;2024-02-23T11:21:33;101407.34;;;6.95;100.00
18900;BME280;9582;52.018;6.306;2024-02-23T11:24:03;101410.69;;;7.01;100.00
18900;BME280;9582;52.018;6.306;2024-02-23T11:26:29;101428.75;;;7.08;100.00
18900;BME280;9582;52.018;6.306;2024-02-23T11:28:57;101444.31;;;7.11;100.00
18900;BME280;9582;52.018;6.306;2024-02-23T11:31:29;101458.94;;;7.17;100.00
18900;BME280;9582;52.018;6.306;2024-02-23T11:33:56;101465.81;;;7.19;100.00
18900;BME280;9582;52.018;6.306;2024-02-23T11:36:27;101485.63;;;7.25;100.00
18900;BME280;9582;52.018;6.306;2024-02-23T11:38:56;101482.97;;;7.28;100.00
18900;BME280;9582;52.018;6.306;2024-02-23T11:41:24;101469.03;;;7.30;100.00
18900;BME280;9582;52.018;6.306;2024-02-23T11:43:51;101453.38;;;7.32;100.00
18900;BME280;9582;52.018;6.306;2024-02-23T11:46:19;101462.00;;;7.34;100.00
18900;BME280;9582;52.018;6.306;2024-02-23T11:48:46;101453.38;;;7.32;100.00
18900;BME280;9582;52.018;6.306;2024-02-23T11:51:19;101434.31;;;7.31;100.00
18900;BME280;9582;52.018;6.306;2024-02-23T11:53:47;101443.91;;;7.29;100.00
18900;BME280;9582;52.018;6.306;2024-02-23T11:56:14;101424.03;;;7.27;100.00
18900;BME280;9582;52.018;6.306;2024-02-23T11:58:41;101416.16;;;7.28;100.00
18900;BME280;9582;52.018;6.306;2024-02-23T12:01:07;101410.16;;;7.26;100.00
18900;BME280;9582;52.018;6.306;2024-02-23T12:03:34;101396.28;;;7.26;100.00
18900;BME280;9582;52.018;6.306;2024-02-23T12:06:02;101401.50;;;7.26;100.00
18900;BME280;9582;52.018;6.306;2024-02-23T12:08:30;101398.94;;;7.24;100.00
18900;BME280;9582;52.018;6.306;2024-02-23T12:11:05;101375.47;;;7.26;100.00
18900;BME280;9582;52.018;6.306;2024-02-23T12:13:33;101376.34;;;7.26;100.00
18900;BME280;9582;52.018;6.306;2024-02-23T12:16:00;101373.72;;;7.28;100.00
18900;BME280;9582;52.018;6.306;2024-02-23T12:18:28;101366.53;;;7.39;100.00
18900;BME280;9582;52.018;6.306;2024-02-23T12:20:59;101353.22;;;7.51;100.00
18900;BME280;9582;52.018;6.306;2024-02-23T12:23:25;101361.66;;;7.61;100.00
18900;BME280;9582;52.018;6.306;2024-02-23T12:25:53;101364.16;;;7.65;100.00
18900;BME280;9582;52.018;6.306;2024-02-23T12:28:22;101350.38;;;7.62;100.00
18900;BME280;9582;52.018;6.306;2024-02-23T12:30:58;101333.09;;;7.59;100.00
18900;BME280;9582;52.018;6.306;2024-02-23T12:33:27;101333.09;;;7.57;100.00
18900;BME280;9582;52.018;6.306;2024-02-23T12:35:55;101326.16;;;7.58;100.00
18900;BME280;9582;52.018;6.306;2024-02-23T12:38:21;101310.63;;;7.55;100.00
18900;BME280;9582;52.018;6.306;2024-02-23T12:40:48;101318.50;;;7.52;100.00
18900;BME280;9582;52.018;6.306;2024-02-23T12:43:15;101296.88;;;7.50;100.00
18900;BME280;9582;52.018;6.306;2024-02-23T12:45:43;101294.34;;;7.47;100.00
18900;BME280;9582;52.018;6.306;2024-02-23T12:48:14;101284.81;;;7.46;100.00
18900;BME280;9582;52.018;6.306;2024-02-23T12:50:41;101277.88;;;7.46;100.00
18900;BME280;9582;52.018;6.306;2024-02-23T12:53:08;101280.53;;;7.45;100.00
18900;BME280;9582;52.018;6.306;2024-02-23T12:55:34;101264.09;;;7.43;100.00
18900;BME280;9582;52.018;6.306;2024-02-23T12:58:02;101270.16;;;7.43;100.00
18900;BME280;9582;52.018;6.306;2024-02-23T13:00:28;101266.53;;;7.49;100.00